Maersk Trieste — 9V5156 — position and weather

sailwx.info

Track history (hours):
 
Tides and Currents Weather Stations Pressure Air Temp Water Temp Dewpoint Dewpoint Depression Visibility Wind Speed Wind Dir Waves Ship Positions

Maersk Trieste

Last reported at 2018-Jun-05 08:16 UTC. Time now 2018-Jun-18 13:42 UTC.
Position N 29°28' W 093°40'.
Warning: this ship's position is 13 days out of date.

Length 183 m; draft 12.2 m.

Type: Ship. MMSI: 563008400.

Date/timePositionNaut miles runAvg speedWind from/ knotsBaromVisibWave heightAir tempDewpointWater temp
2018-Jun-05 08:16N 29°28' W 093°40'511.3
2018-Jun-05 07:49N 29°32' W 093°44'411.6
2018-Jun-05 07:30N 29°35' W 093°47'510.8
2018-Jun-05 07:00N 29°39' W 093°50'510.6
2018-Jun-05 06:30N 29°44' W 093°52'4 8.6
2018-Jun-05 06:00N 29°47' W 093°56'4 7.6
2018-Jun-05 05:30N 29°50' W 093°57'1 2.8
2018-Jun-05 05:00N 29°52' W 093°56'0 0.0
2018-Jun-05 04:30N 29°52' W 093°56'0 0.0
2018-Jun-05 03:58N 29°52' W 093°56'0 0.0
2018-Jun-05 03:28N 29°52' W 093°56'0 0.0
2018-Jun-05 02:55N 29°52' W 093°56'0 0.0
2018-Jun-05 02:28N 29°52' W 093°56'0 0.0
2018-Jun-05 01:58N 29°52' W 093°56'0 0.0
2018-Jun-05 01:28N 29°52' W 093°56'0 0.0
2018-Jun-05 00:58N 29°52' W 093°56'0 0.0
2018-Jun-05 00:28N 29°52' W 093°56'0 0.0
2018-Jun-04 23:58N 29°52' W 093°56'0 0.0
2018-Jun-04 23:28N 29°52' W 093°56'0 0.0
2018-Jun-04 22:58N 29°52' W 093°56'0 0.0
2018-Jun-04 22:25N 29°52' W 093°56'0 0.0
2018-Jun-04 21:58N 29°52' W 093°56'0 0.0
2018-Jun-04 21:28N 29°52' W 093°56'0 0.0
2018-Jun-04 20:58N 29°52' W 093°56'0 0.0
2018-Jun-04 20:28N 29°52' W 093°56'0 0.0
2018-Jun-04 19:58N 29°52' W 093°56'0 0.0
2018-Jun-04 19:28N 29°52' W 093°56'0 0.0
2018-Jun-04 18:58N 29°52' W 093°56'0 0.0
2018-Jun-04 18:28N 29°52' W 093°56'0 0.0
2018-Jun-04 17:58N 29°52' W 093°56'0 0.0
2018-Jun-04 17:28N 29°52' W 093°56'0 0.0
2018-Jun-04 16:58N 29°52' W 093°56'0 0.0
2018-Jun-04 16:28N 29°52' W 093°56'0 0.0
2018-Jun-04 15:58N 29°52' W 093°56'0 0.0
2018-Jun-04 15:28N 29°52' W 093°56'0 0.0
2018-Jun-04 14:58N 29°52' W 093°56'0 0.0
2018-Jun-04 14:28N 29°52' W 093°56'0 0.0
2018-Jun-04 13:58N 29°52' W 093°56'0 0.0
2018-Jun-04 13:28N 29°52' W 093°56'0 0.0
2018-Jun-04 12:58N 29°52' W 093°56'0 0.0
2018-Jun-04 12:28N 29°52' W 093°56'0 0.0
2018-Jun-04 11:58N 29°52' W 093°56'0 0.0
2018-Jun-04 11:28N 29°52' W 093°56'0 0.0
2018-Jun-04 10:58N 29°52' W 093°56'0 0.0
2018-Jun-04 10:28N 29°52' W 093°56'0 0.0
2018-Jun-04 09:58N 29°52' W 093°56'0 0.0
2018-Jun-04 09:28N 29°52' W 093°56'0 0.0
2018-Jun-04 08:58N 29°52' W 093°56'0 0.0
2018-Jun-04 08:28N 29°52' W 093°56'0 0.0
2018-Jun-04 07:58N 29°52' W 093°56'0 0.0
2018-Jun-04 07:28N 29°52' W 093°56'0 0.0
2018-Jun-04 06:58N 29°52' W 093°56'0 0.0
2018-Jun-04 06:28N 29°52' W 093°56'0 0.0
2018-Jun-04 05:58N 29°52' W 093°56'0 0.0
2018-Jun-04 05:28N 29°52' W 093°56'0 0.0
2018-Jun-04 04:58N 29°52' W 093°56'0 0.0
2018-Jun-04 04:28N 29°52' W 093°56'0 0.0
2018-Jun-04 03:58N 29°52' W 093°56'0 0.0
2018-Jun-04 03:28N 29°52' W 093°56'0 0.0
2018-Jun-04 02:58N 29°52' W 093°56'0 0.0
2018-Jun-04 02:28N 29°52' W 093°56'0 0.0
2018-Jun-04 01:55N 29°52' W 093°56'0 0.0
2018-Jun-04 01:28N 29°52' W 093°56'0 0.0
2018-Jun-04 00:58N 29°52' W 093°56'0 0.0
2018-Jun-04 00:28N 29°52' W 093°56'0 0.0
2018-Jun-03 23:58N 29°52' W 093°56'0 0.0
2018-Jun-03 23:28N 29°52' W 093°56'0 0.0
2018-Jun-03 22:58N 29°52' W 093°56'0 0.0
2018-Jun-03 22:28N 29°52' W 093°56'0 0.0
2018-Jun-03 22:00N 29°52' W 093°56'1 1.2
2018-Jun-03 21:30N 29°52' W 093°56'3 6.8
2018-Jun-03 21:00N 29°49' W 093°58'4 8.3
2018-Jun-03 20:30N 29°46' W 093°54'5 9.7
2018-Jun-03 20:00N 29°42' W 093°51'611.7
2018-Jun-03 19:30N 29°37' W 093°49'611.8
2018-Jun-03 19:00N 29°32' W 093°44'611.3
2018-Jun-03 18:30N 29°28' W 093°40'4 8.5
2018-Jun-03 18:00N 29°24' W 093°39'4 7.4
2018-Jun-03 17:28N 29°20' W 093°39'4 0.4
2018-Jun-03 08:50N 29°16' W 093°42'0 0.0
2018-Jun-03 08:23N 29°16' W 093°42'0 0.0
2018-Jun-03 07:59N 29°16' W 093°42'0 0.0
2018-Jun-03 06:08N 29°16' W 093°42'0 0.0
2018-Jun-03 05:56N 29°16' W 093°42'0 0.0
2018-Jun-03 05:29N 29°16' W 093°42'0 0.0
2018-Jun-03 04:50N 29°16' W 093°42'0 0.0
2018-Jun-03 04:26N 29°16' W 093°42'0 0.0
2018-Jun-03 03:11N 29°16' W 093°42'0 0.0
2018-Jun-03 02:59N 29°16' W 093°42'0 0.0
2018-Jun-03 02:20N 29°16' W 093°42'0 0.0
2018-Jun-03 01:53N 29°16' W 093°42'0 0.0
2018-Jun-03 01:26N 29°16' W 093°42'0 0.0
2018-Jun-03 00:59N 29°16' W 093°42'0 0.0
2018-Jun-03 00:29N 29°16' W 093°42'0 0.0
2018-Jun-02 23:56N 29°16' W 093°42'0 0.0
2018-Jun-02 23:26N 29°16' W 093°42'0 0.0
2018-Jun-02 22:59N 29°16' W 093°42'0 0.0
2018-Jun-02 22:26N 29°16' W 093°42'0 0.0
2018-Jun-02 18:38N 29°16' W 093°42'0 0.0
2018-Jun-02 16:05N 29°16' W 093°42'0 0.0
2018-Jun-02 15:02N 29°16' W 093°42'0 0.1
2018-Jun-02 14:56N 29°16' W 093°42'0 0.0
2018-Jun-02 14:14N 29°16' W 093°42'0 0.0
2018-Jun-02 13:56N 29°16' W 093°42'0 0.0
2018-Jun-02 02:08N 29°16' W 093°42'0 0.1
2018-Jun-02 02:00N 29°16' W 093°42'47 2.2
2018-Jun-01 04:43N 29°08' W 094°35'0 0.0
2018-Jun-01 04:28N 29°08' W 094°35'0 0.0
2018-Jun-01 03:43N 29°08' W 094°35'0 0.0
2018-Jun-01 03:22N 29°08' W 094°35'0 0.0
2018-Jun-01 02:25N 29°08' W 094°35'0 0.0
2018-Jun-01 01:58N 29°08' W 094°35'0 0.0
2018-Jun-01 01:19N 29°08' W 094°35'0 0.0
2018-Jun-01 00:58N 29°08' W 094°35'0 0.0
2018-Jun-01 00:28N 29°08' W 094°35'0 0.0
2018-May-31 23:58N 29°08' W 094°35'0 0.0
2018-May-31 23:28N 29°08' W 094°35'0 0.0
2018-May-31 22:58N 29°08' W 094°35'0 0.0
2018-May-31 22:25N 29°08' W 094°35'0 0.0
2018-May-31 21:58N 29°08' W 094°35'0 0.0
2018-May-31 21:28N 29°08' W 094°35'0 0.0
2018-May-31 20:55N 29°08' W 094°35'0 0.0
2018-May-31 11:43N 29°08' W 094°35'0 0.0
2018-May-31 11:25N 29°08' W 094°35'0 0.0
2018-May-31 07:46N 29°08' W 094°35'0 0.0
2018-May-31 07:25N 29°08' W 094°35'0 0.0
2018-May-31 06:55N 29°08' W 094°35'0 0.0
2018-May-31 06:22N 29°08' W 094°35'0 0.0
2018-May-31 05:55N 29°08' W 094°35'0 0.0
2018-May-31 05:28N 29°08' W 094°35'0 0.0
2018-May-31 04:55N 29°08' W 094°35'0 0.0
2018-May-31 04:28N 29°08' W 094°35'0 0.0
2018-May-31 03:55N 29°08' W 094°35'0 0.0
2018-May-31 03:28N 29°08' W 094°35'0 0.0
2018-May-31 02:55N 29°08' W 094°35'0 0.0
2018-May-31 02:28N 29°08' W 094°35'0 0.0
2018-May-31 01:58N 29°08' W 094°35'0 0.0
2018-May-31 01:28N 29°08' W 094°35'0 0.0
2018-May-31 00:58N 29°08' W 094°35'0 0.0
2018-May-30 23:28N 29°08' W 094°35'0 0.0
2018-May-30 22:55N 29°08' W 094°35'0 0.0
2018-May-30 22:28N 29°08' W 094°35'0 0.0
2018-May-30 21:58N 29°08' W 094°35'0 0.0
2018-May-30 21:28N 29°08' W 094°35'0 0.0
2018-May-30 20:58N 29°08' W 094°35'0 0.0
2018-May-30 20:28N 29°08' W 094°35'0 0.0
2018-May-30 19:55N 29°08' W 094°34'0 0.0
2018-May-30 19:28N 29°08' W 094°34'0 0.0
2018-May-30 18:58N 29°08' W 094°35'0 0.0
2018-May-30 18:28N 29°08' W 094°35'0 0.0
2018-May-30 17:55N 29°08' W 094°35'0 0.0
2018-May-30 17:28N 29°08' W 094°35'0 0.0
2018-May-30 16:58N 29°08' W 094°35'0 0.0
2018-May-30 16:25N 29°08' W 094°35'0 0.0
2018-May-30 15:58N 29°08' W 094°35'0 0.0
2018-May-30 15:25N 29°08' W 094°35'0 0.0
2018-May-30 14:58N 29°08' W 094°35'0 0.0
2018-May-30 14:25N 29°08' W 094°35'0 0.1
2018-May-30 13:55N 29°08' W 094°35'0 0.0
2018-May-30 13:25N 29°08' W 094°35'0 0.0
2018-May-30 12:55N 29°08' W 094°35'0 0.0
2018-May-30 12:28N 29°08' W 094°35'0 0.0
2018-May-30 11:58N 29°08' W 094°35'0 0.0
2018-May-30 11:28N 29°08' W 094°35'0 0.0
2018-May-30 10:58N 29°08' W 094°35'0 0.0
2018-May-30 10:22N 29°08' W 094°35'0 0.0
2018-May-30 09:58N 29°08' W 094°35'0 0.0
2018-May-30 09:28N 29°08' W 094°35'0 0.0
2018-May-30 08:58N 29°08' W 094°35'0 0.0
2018-May-30 08:28N 29°08' W 094°35'0 0.0
2018-May-30 07:58N 29°08' W 094°35'0 0.0
2018-May-30 07:28N 29°08' W 094°35'0 0.0
2018-May-30 06:58N 29°08' W 094°35'0 0.0
2018-May-30 06:28N 29°08' W 094°35'0 0.0
2018-May-30 05:58N 29°08' W 094°35'0 0.0
2018-May-30 05:28N 29°08' W 094°35'0 0.0
2018-May-30 04:52N 29°08' W 094°35'0 0.0
2018-May-30 04:28N 29°08' W 094°35'0 0.0
2018-May-30 03:58N 29°08' W 094°35'0 0.0
2018-May-30 03:28N 29°08' W 094°35'0 0.0
2018-May-30 02:58N 29°08' W 094°35'0 0.0
2018-May-30 02:28N 29°08' W 094°35'0 0.0
2018-May-30 01:58N 29°08' W 094°35'0 0.0
2018-May-30 01:19N 29°08' W 094°35'0 0.0
2018-May-30 00:55N 29°08' W 094°35'0 0.0
2018-May-30 00:28N 29°08' W 094°35'0 0.0
2018-May-29 23:58N 29°08' W 094°35'0 0.0
2018-May-29 23:25N 29°08' W 094°35'0 0.0
2018-May-29 22:58N 29°08' W 094°35'0 0.0
2018-May-29 22:28N 29°08' W 094°35'0 0.0
2018-May-29 21:58N 29°08' W 094°35'0 0.0
2018-May-29 21:28N 29°08' W 094°35'0 0.0
2018-May-29 20:58N 29°08' W 094°35'0 0.0
2018-May-29 20:28N 29°08' W 094°35'0 0.0
2018-May-29 19:49N 29°08' W 094°35'0 0.0
2018-May-29 18:58N 29°08' W 094°35'0 0.0
2018-May-29 18:22N 29°08' W 094°35'0 0.0
2018-May-29 17:58N 29°08' W 094°35'0 0.0
2018-May-29 17:19N 29°08' W 094°35'0 0.1
2018-May-29 16:58N 29°08' W 094°35'0 0.0
2018-May-29 16:22N 29°08' W 094°35'0 0.0
2018-May-29 15:43N 29°08' W 094°35'0 0.0
2018-May-29 15:19N 29°08' W 094°35'0 0.0
2018-May-29 14:58N 29°08' W 094°35'0 0.0
2018-May-29 14:28N 29°08' W 094°35'0 0.0
2018-May-29 13:58N 29°08' W 094°35'0 0.0
2018-May-29 13:28N 29°08' W 094°35'0 0.0
2018-May-29 12:58N 29°08' W 094°35'0 0.0
2018-May-29 12:28N 29°08' W 094°35'0 0.0
2018-May-29 11:58N 29°08' W 094°35'0 0.0
2018-May-29 11:25N 29°08' W 094°35'0 0.0
2018-May-29 10:55N 29°08' W 094°35'0 0.0
2018-May-29 10:28N 29°08' W 094°35'0 0.0
2018-May-29 09:58N 29°08' W 094°35'0 0.0
2018-May-29 09:22N 29°08' W 094°35'0 0.0
2018-May-29 08:43N 29°08' W 094°35'0 0.0
2018-May-29 08:28N 29°08' W 094°35'0 0.0
2018-May-29 07:16N 29°08' W 094°35'0 0.0
2018-May-29 06:52N 29°08' W 094°35'0 0.0
2018-May-29 06:28N 29°08' W 094°35'0 0.0
2018-May-29 05:58N 29°08' W 094°35'0 0.0
2018-May-29 05:28N 29°08' W 094°35'0 0.0
2018-May-29 04:58N 29°08' W 094°35'0 0.0
2018-May-29 04:28N 29°08' W 094°35'0 0.0
2018-May-29 03:58N 29°08' W 094°35'0 0.0
2018-May-29 01:46N 29°08' W 094°35'0 0.0
2018-May-29 01:28N 29°08' W 094°35'0 0.0
2018-May-29 00:58N 29°08' W 094°35'0 0.0
2018-May-29 00:25N 29°08' W 094°35'0 0.0
2018-May-28 19:34N 29°08' W 094°35'0 0.1
2018-May-28 19:28N 29°08' W 094°35'0 0.0
2018-May-28 17:37N 29°08' W 094°35'0 0.0
2018-May-28 17:13N 29°08' W 094°35'0 0.0
2018-May-28 16:58N 29°08' W 094°35'0 0.0
2018-May-28 16:25N 29°08' W 094°35'0 0.0
2018-May-28 12:28N 29°08' W 094°35'0 0.0
2018-May-28 11:55N 29°08' W 094°35'0 0.1
2018-May-28 11:28N 29°08' W 094°35'0 0.1
2018-May-28 10:49N 29°08' W 094°35'0 0.1
2018-May-28 10:28N 29°08' W 094°35'0 0.1
2018-May-28 09:55N 29°08' W 094°35'0 0.0
2018-May-28 09:28N 29°08' W 094°35'0 0.0
2018-May-28 08:58N 29°08' W 094°35'0 0.0
2018-May-28 08:16N 29°08' W 094°35'0 0.1
2018-May-28 07:58N 29°08' W 094°35'0 0.0
2018-May-28 07:25N 29°08' W 094°35'0 0.0
2018-May-28 06:58N 29°08' W 094°35'0 0.0
2018-May-28 06:28N 29°08' W 094°35'0 0.0
2018-May-28 05:07N 29°08' W 094°35'0 0.0
2018-May-28 04:46N 29°08' W 094°35'0 0.0
2018-May-28 04:19N 29°08' W 094°35'0 0.0
2018-May-28 03:58N 29°08' W 094°35'0 0.0
2018-May-28 00:16N 29°08' W 094°35'0 0.0
2018-May-27 23:34N 29°08' W 094°35'0 0.0
2018-May-27 23:22N 29°08' W 094°35'0 0.0
2018-May-27 21:01N 29°08' W 094°35'0 0.1
2018-May-27 20:55N 29°08' W 094°35'0 0.2
2018-May-27 20:28N 29°08' W 094°35'0 0.1
2018-May-27 19:58N 29°08' W 094°35'0 0.0
2018-May-27 19:25N 29°08' W 094°35'0 0.0
2018-May-27 18:55N 29°08' W 094°35'0 0.0
2018-May-27 18:28N 29°08' W 094°35'0 0.0
2018-May-27 17:43N 29°08' W 094°35'0 0.0
2018-May-27 17:28N 29°08' W 094°35'0 0.0
2018-May-27 16:58N 29°08' W 094°35'0 0.0
2018-May-27 16:25N 29°08' W 094°35'0 0.0
2018-May-27 15:28N 29°08' W 094°35'0 0.0
2018-May-27 14:58N 29°08' W 094°35'0 0.0
2018-May-27 14:28N 29°08' W 094°35'0 0.0
2018-May-27 13:58N 29°08' W 094°35'0 0.0
2018-May-27 13:28N 29°08' W 094°35'0 0.0
2018-May-27 12:58N 29°08' W 094°35'0 0.0
2018-May-27 12:25N 29°08' W 094°35'0 0.0
2018-May-27 11:58N 29°08' W 094°35'0 0.0
2018-May-27 10:40N 29°08' W 094°35'0 0.1
2018-May-27 10:28N 29°08' W 094°35'0 0.0
2018-May-27 09:55N 29°08' W 094°35'0 0.0
2018-May-27 09:28N 29°08' W 094°35'0 0.0
2018-May-27 08:52N 29°08' W 094°35'0 0.0
2018-May-27 08:28N 29°08' W 094°35'0 0.0
2018-May-27 07:52N 29°08' W 094°35'0 0.0
2018-May-27 07:28N 29°08' W 094°35'0 0.0
2018-May-27 06:58N 29°08' W 094°35'0 0.0
2018-May-27 06:28N 29°08' W 094°35'0 0.0
2018-May-27 05:58N 29°08' W 094°35'0 0.0
2018-May-27 05:28N 29°08' W 094°35'0 0.0
2018-May-27 04:52N 29°08' W 094°35'0 0.0
2018-May-27 04:28N 29°08' W 094°35'0 0.0
2018-May-27 03:49N 29°08' W 094°35'0 0.0
2018-May-27 03:28N 29°08' W 094°35'0 0.0
2018-May-27 02:16N 29°08' W 094°35'0 0.0
2018-May-27 01:40N 29°08' W 094°35'0 0.0
2018-May-27 01:19N 29°08' W 094°35'0 0.0
2018-May-27 00:55N 29°08' W 094°35'0 0.0
2018-May-26 23:52N 29°08' W 094°35'0 0.0
2018-May-26 23:16N 29°08' W 094°35'0 0.0
2018-May-26 22:28N 29°08' W 094°35'0 0.0
2018-May-26 21:52N 29°08' W 094°35'0 0.0
2018-May-26 21:28N 29°08' W 094°35'0 0.0
2018-May-26 20:58N 29°08' W 094°35'0 0.0
2018-May-26 20:28N 29°08' W 094°35'0 0.0
2018-May-26 19:55N 29°08' W 094°35'0 0.0
2018-May-26 19:28N 29°08' W 094°35'0 0.0
2018-May-26 15:49N 29°08' W 094°35'0 0.0
2018-May-26 15:28N 29°08' W 094°35'0 0.0
2018-May-26 14:58N 29°08' W 094°35'0 0.0
2018-May-26 14:28N 29°08' W 094°35'0 0.0
2018-May-26 14:01N 29°08' W 094°35'0 0.0
2018-May-26 12:52N 29°08' W 094°35'0 0.1
2018-May-26 12:28N 29°08' W 094°35'0 0.0
2018-May-26 11:58N 29°08' W 094°35'0 0.0
2018-May-26 11:28N 29°08' W 094°35'0 0.0
2018-May-26 10:55N 29°08' W 094°35'0 0.0
2018-May-26 10:31N 29°08' W 094°35'0 0.0
2018-May-26 09:58N 29°08' W 094°35'0 0.0
2018-May-26 09:28N 29°08' W 094°35'0 0.0
2018-May-26 08:55N 29°08' W 094°35'0 0.0
2018-May-26 08:28N 29°08' W 094°35'  
Track history (hours):
 
Tides and Currents Weather Stations Pressure Air Temp Water Temp Dewpoint Dewpoint Depression Visibility Wind Speed Wind Dir Waves Ship Positions

Maersk Trieste

Last reported at 2018-Jun-05 08:16 UTC. Time now 2018-Jun-18 13:42 UTC.
Position N 29°28' W 093°40'.
Warning: this ship's position is 13 days out of date.

Length 183 m; draft 12.2 m.

Type: Ship. MMSI: 563008400.

Date/timePositionNaut miles runAvg speedWind from/ knotsBaromVisibWave heightAir tempDewpointWater temp
2018-Jun-05 08:16N 29°28' W 093°40'511.3
2018-Jun-05 07:49N 29°32' W 093°44'411.6
2018-Jun-05 07:30N 29°35' W 093°47'510.8
2018-Jun-05 07:00N 29°39' W 093°50'510.6
2018-Jun-05 06:30N 29°44' W 093°52'4 8.6
2018-Jun-05 06:00N 29°47' W 093°56'4 7.6
2018-Jun-05 05:30N 29°50' W 093°57'1 2.8
2018-Jun-05 05:00N 29°52' W 093°56'0 0.0
2018-Jun-05 04:30N 29°52' W 093°56'0 0.0
2018-Jun-05 03:58N 29°52' W 093°56'0 0.0
2018-Jun-05 03:28N 29°52' W 093°56'0 0.0
2018-Jun-05 02:55N 29°52' W 093°56'0 0.0
2018-Jun-05 02:28N 29°52' W 093°56'0 0.0
2018-Jun-05 01:58N 29°52' W 093°56'0 0.0
2018-Jun-05 01:28N 29°52' W 093°56'0 0.0
2018-Jun-05 00:58N 29°52' W 093°56'0 0.0
2018-Jun-05 00:28N 29°52' W 093°56'0 0.0
2018-Jun-04 23:58N 29°52' W 093°56'0 0.0
2018-Jun-04 23:28N 29°52' W 093°56'0 0.0
2018-Jun-04 22:58N 29°52' W 093°56'0 0.0
2018-Jun-04 22:25N 29°52' W 093°56'0 0.0
2018-Jun-04 21:58N 29°52' W 093°56'0 0.0
2018-Jun-04 21:28N 29°52' W 093°56'0 0.0
2018-Jun-04 20:58N 29°52' W 093°56'0 0.0
2018-Jun-04 20:28N 29°52' W 093°56'0 0.0
2018-Jun-04 19:58N 29°52' W 093°56'0 0.0
2018-Jun-04 19:28N 29°52' W 093°56'0 0.0
2018-Jun-04 18:58N 29°52' W 093°56'0 0.0
2018-Jun-04 18:28N 29°52' W 093°56'0 0.0
2018-Jun-04 17:58N 29°52' W 093°56'0 0.0
2018-Jun-04 17:28N 29°52' W 093°56'0 0.0
2018-Jun-04 16:58N 29°52' W 093°56'0 0.0
2018-Jun-04 16:28N 29°52' W 093°56'0 0.0
2018-Jun-04 15:58N 29°52' W 093°56'0 0.0
2018-Jun-04 15:28N 29°52' W 093°56'0 0.0
2018-Jun-04 14:58N 29°52' W 093°56'0 0.0
2018-Jun-04 14:28N 29°52' W 093°56'0 0.0
2018-Jun-04 13:58N 29°52' W 093°56'0 0.0
2018-Jun-04 13:28N 29°52' W 093°56'0 0.0
2018-Jun-04 12:58N 29°52' W 093°56'0 0.0
2018-Jun-04 12:28N 29°52' W 093°56'0 0.0
2018-Jun-04 11:58N 29°52' W 093°56'0 0.0
2018-Jun-04 11:28N 29°52' W 093°56'0 0.0
2018-Jun-04 10:58N 29°52' W 093°56'0 0.0
2018-Jun-04 10:28N 29°52' W 093°56'0 0.0
2018-Jun-04 09:58N 29°52' W 093°56'0 0.0
2018-Jun-04 09:28N 29°52' W 093°56'0 0.0
2018-Jun-04 08:58N 29°52' W 093°56'0 0.0
2018-Jun-04 08:28N 29°52' W 093°56'0 0.0
2018-Jun-04 07:58N 29°52' W 093°56'0 0.0
2018-Jun-04 07:28N 29°52' W 093°56'0 0.0
2018-Jun-04 06:58N 29°52' W 093°56'0 0.0
2018-Jun-04 06:28N 29°52' W 093°56'0 0.0
2018-Jun-04 05:58N 29°52' W 093°56'0 0.0
2018-Jun-04 05:28N 29°52' W 093°56'0 0.0
2018-Jun-04 04:58N 29°52' W 093°56'0 0.0
2018-Jun-04 04:28N 29°52' W 093°56'0 0.0
2018-Jun-04 03:58N 29°52' W 093°56'0 0.0
2018-Jun-04 03:28N 29°52' W 093°56'0 0.0
2018-Jun-04 02:58N 29°52' W 093°56'0 0.0
2018-Jun-04 02:28N 29°52' W 093°56'0 0.0
2018-Jun-04 01:55N 29°52' W 093°56'0 0.0
2018-Jun-04 01:28N 29°52' W 093°56'0 0.0
2018-Jun-04 00:58N 29°52' W 093°56'0 0.0
2018-Jun-04 00:28N 29°52' W 093°56'0 0.0
2018-Jun-03 23:58N 29°52' W 093°56'0 0.0
2018-Jun-03 23:28N 29°52' W 093°56'0 0.0
2018-Jun-03 22:58N 29°52' W 093°56'0 0.0
2018-Jun-03 22:28N 29°52' W 093°56'0 0.0
2018-Jun-03 22:00N 29°52' W 093°56'1 1.2
2018-Jun-03 21:30N 29°52' W 093°56'3 6.8
2018-Jun-03 21:00N 29°49' W 093°58'4 8.3
2018-Jun-03 20:30N 29°46' W 093°54'5 9.7
2018-Jun-03 20:00N 29°42' W 093°51'611.7
2018-Jun-03 19:30N 29°37' W 093°49'611.8
2018-Jun-03 19:00N 29°32' W 093°44'611.3
2018-Jun-03 18:30N 29°28' W 093°40'4 8.5
2018-Jun-03 18:00N 29°24' W 093°39'4 7.4
2018-Jun-03 17:28N 29°20' W 093°39'4 0.4
2018-Jun-03 08:50N 29°16' W 093°42'0 0.0
2018-Jun-03 08:23N 29°16' W 093°42'0 0.0
2018-Jun-03 07:59N 29°16' W 093°42'0 0.0
2018-Jun-03 06:08N 29°16' W 093°42'0 0.0
2018-Jun-03 05:56N 29°16' W 093°42'0 0.0
2018-Jun-03 05:29N 29°16' W 093°42'0 0.0
2018-Jun-03 04:50N 29°16' W 093°42'0 0.0
2018-Jun-03 04:26N 29°16' W 093°42'0 0.0
2018-Jun-03 03:11N 29°16' W 093°42'0 0.0
2018-Jun-03 02:59N 29°16' W 093°42'0 0.0
2018-Jun-03 02:20N 29°16' W 093°42'0 0.0
2018-Jun-03 01:53N 29°16' W 093°42'0 0.0
2018-Jun-03 01:26N 29°16' W 093°42'0 0.0
2018-Jun-03 00:59N 29°16' W 093°42'0 0.0
2018-Jun-03 00:29N 29°16' W 093°42'0 0.0
2018-Jun-02 23:56N 29°16' W 093°42'0 0.0
2018-Jun-02 23:26N 29°16' W 093°42'0 0.0
2018-Jun-02 22:59N 29°16' W 093°42'0 0.0
2018-Jun-02 22:26N 29°16' W 093°42'0 0.0
2018-Jun-02 18:38N 29°16' W 093°42'0 0.0
2018-Jun-02 16:05N 29°16' W 093°42'0 0.0
2018-Jun-02 15:02N 29°16' W 093°42'0 0.1
2018-Jun-02 14:56N 29°16' W 093°42'0 0.0
2018-Jun-02 14:14N 29°16' W 093°42'0 0.0
2018-Jun-02 13:56N 29°16' W 093°42'0 0.0
2018-Jun-02 02:08N 29°16' W 093°42'0 0.1
2018-Jun-02 02:00N 29°16' W 093°42'47 2.2
2018-Jun-01 04:43N 29°08' W 094°35'0 0.0
2018-Jun-01 04:28N 29°08' W 094°35'0 0.0
2018-Jun-01 03:43N 29°08' W 094°35'0 0.0
2018-Jun-01 03:22N 29°08' W 094°35'0 0.0
2018-Jun-01 02:25N 29°08' W 094°35'0 0.0
2018-Jun-01 01:58N 29°08' W 094°35'0 0.0
2018-Jun-01 01:19N 29°08' W 094°35'0 0.0
2018-Jun-01 00:58N 29°08' W 094°35'0 0.0
2018-Jun-01 00:28N 29°08' W 094°35'0 0.0
2018-May-31 23:58N 29°08' W 094°35'0 0.0
2018-May-31 23:28N 29°08' W 094°35'0 0.0
2018-May-31 22:58N 29°08' W 094°35'0 0.0
2018-May-31 22:25N 29°08' W 094°35'0 0.0
2018-May-31 21:58N 29°08' W 094°35'0 0.0
2018-May-31 21:28N 29°08' W 094°35'0 0.0
2018-May-31 20:55N 29°08' W 094°35'0 0.0
2018-May-31 11:43N 29°08' W 094°35'0 0.0
2018-May-31 11:25N 29°08' W 094°35'0 0.0
2018-May-31 07:46N 29°08' W 094°35'0 0.0
2018-May-31 07:25N 29°08' W 094°35'0 0.0
2018-May-31 06:55N 29°08' W 094°35'0 0.0
2018-May-31 06:22N 29°08' W 094°35'0 0.0
2018-May-31 05:55N 29°08' W 094°35'0 0.0
2018-May-31 05:28N 29°08' W 094°35'0 0.0
2018-May-31 04:55N 29°08' W 094°35'0 0.0
2018-May-31 04:28N 29°08' W 094°35'0 0.0
2018-May-31 03:55N 29°08' W 094°35'0 0.0
2018-May-31 03:28N 29°08' W 094°35'0 0.0
2018-May-31 02:55N 29°08' W 094°35'0 0.0
2018-May-31 02:28N 29°08' W 094°35'0 0.0
2018-May-31 01:58N 29°08' W 094°35'0 0.0
2018-May-31 01:28N 29°08' W 094°35'0 0.0
2018-May-31 00:58N 29°08' W 094°35'0 0.0
2018-May-30 23:28N 29°08' W 094°35'0 0.0
2018-May-30 22:55N 29°08' W 094°35'0 0.0
2018-May-30 22:28N 29°08' W 094°35'0 0.0
2018-May-30 21:58N 29°08' W 094°35'0 0.0
2018-May-30 21:28N 29°08' W 094°35'0 0.0
2018-May-30 20:58N 29°08' W 094°35'0 0.0
2018-May-30 20:28N 29°08' W 094°35'0 0.0
2018-May-30 19:55N 29°08' W 094°34'0 0.0
2018-May-30 19:28N 29°08' W 094°34'0 0.0
2018-May-30 18:58N 29°08' W 094°35'0 0.0
2018-May-30 18:28N 29°08' W 094°35'0 0.0
2018-May-30 17:55N 29°08' W 094°35'0 0.0
2018-May-30 17:28N 29°08' W 094°35'0 0.0
2018-May-30 16:58N 29°08' W 094°35'0 0.0
2018-May-30 16:25N 29°08' W 094°35'0 0.0
2018-May-30 15:58N 29°08' W 094°35'0 0.0
2018-May-30 15:25N 29°08' W 094°35'0 0.0
2018-May-30 14:58N 29°08' W 094°35'0 0.0
2018-May-30 14:25N 29°08' W 094°35'0 0.1
2018-May-30 13:55N 29°08' W 094°35'0 0.0
2018-May-30 13:25N 29°08' W 094°35'0 0.0
2018-May-30 12:55N 29°08' W 094°35'0 0.0
2018-May-30 12:28N 29°08' W 094°35'0 0.0
2018-May-30 11:58N 29°08' W 094°35'0 0.0
2018-May-30 11:28N 29°08' W 094°35'0 0.0
2018-May-30 10:58N 29°08' W 094°35'0 0.0
2018-May-30 10:22N 29°08' W 094°35'0 0.0
2018-May-30 09:58N 29°08' W 094°35'0 0.0
2018-May-30 09:28N 29°08' W 094°35'0 0.0
2018-May-30 08:58N 29°08' W 094°35'0 0.0
2018-May-30 08:28N 29°08' W 094°35'0 0.0
2018-May-30 07:58N 29°08' W 094°35'0 0.0
2018-May-30 07:28N 29°08' W 094°35'0 0.0
2018-May-30 06:58N 29°08' W 094°35'0 0.0
2018-May-30 06:28N 29°08' W 094°35'0 0.0
2018-May-30 05:58N 29°08' W 094°35'0 0.0
2018-May-30 05:28N 29°08' W 094°35'0 0.0
2018-May-30 04:52N 29°08' W 094°35'0 0.0
2018-May-30 04:28N 29°08' W 094°35'0 0.0
2018-May-30 03:58N 29°08' W 094°35'0 0.0
2018-May-30 03:28N 29°08' W 094°35'0 0.0
2018-May-30 02:58N 29°08' W 094°35'0 0.0
2018-May-30 02:28N 29°08' W 094°35'0 0.0
2018-May-30 01:58N 29°08' W 094°35'0 0.0
2018-May-30 01:19N 29°08' W 094°35'0 0.0
2018-May-30 00:55N 29°08' W 094°35'0 0.0
2018-May-30 00:28N 29°08' W 094°35'0 0.0
2018-May-29 23:58N 29°08' W 094°35'0 0.0
2018-May-29 23:25N 29°08' W 094°35'0 0.0
2018-May-29 22:58N 29°08' W 094°35'0 0.0
2018-May-29 22:28N 29°08' W 094°35'0 0.0
2018-May-29 21:58N 29°08' W 094°35'0 0.0
2018-May-29 21:28N 29°08' W 094°35'0 0.0
2018-May-29 20:58N 29°08' W 094°35'0 0.0
2018-May-29 20:28N 29°08' W 094°35'0 0.0
2018-May-29 19:49N 29°08' W 094°35'0 0.0
2018-May-29 18:58N 29°08' W 094°35'0 0.0
2018-May-29 18:22N 29°08' W 094°35'0 0.0
2018-May-29 17:58N 29°08' W 094°35'0 0.0
2018-May-29 17:19N 29°08' W 094°35'0 0.1
2018-May-29 16:58N 29°08' W 094°35'0 0.0
2018-May-29 16:22N 29°08' W 094°35'0 0.0
2018-May-29 15:43N 29°08' W 094°35'0 0.0
2018-May-29 15:19N 29°08' W 094°35'0 0.0
2018-May-29 14:58N 29°08' W 094°35'0 0.0
2018-May-29 14:28N 29°08' W 094°35'0 0.0
2018-May-29 13:58N 29°08' W 094°35'0 0.0
2018-May-29 13:28N 29°08' W 094°35'0 0.0
2018-May-29 12:58N 29°08' W 094°35'0 0.0
2018-May-29 12:28N 29°08' W 094°35'0 0.0
2018-May-29 11:58N 29°08' W 094°35'0 0.0
2018-May-29 11:25N 29°08' W 094°35'0 0.0
2018-May-29 10:55N 29°08' W 094°35'0 0.0
2018-May-29 10:28N 29°08' W 094°35'0 0.0
2018-May-29 09:58N 29°08' W 094°35'0 0.0
2018-May-29 09:22N 29°08' W 094°35'0 0.0
2018-May-29 08:43N 29°08' W 094°35'0 0.0
2018-May-29 08:28N 29°08' W 094°35'0 0.0
2018-May-29 07:16N 29°08' W 094°35'0 0.0
2018-May-29 06:52N 29°08' W 094°35'0 0.0
2018-May-29 06:28N 29°08' W 094°35'0 0.0
2018-May-29 05:58N 29°08' W 094°35'0 0.0
2018-May-29 05:28N 29°08' W 094°35'0 0.0
2018-May-29 04:58N 29°08' W 094°35'0 0.0
2018-May-29 04:28N 29°08' W 094°35'0 0.0
2018-May-29 03:58N 29°08' W 094°35'0 0.0
2018-May-29 01:46N 29°08' W 094°35'0 0.0
2018-May-29 01:28N 29°08' W 094°35'0 0.0
2018-May-29 00:58N 29°08' W 094°35'0 0.0
2018-May-29 00:25N 29°08' W 094°35'0 0.0
2018-May-28 19:34N 29°08' W 094°35'0 0.1
2018-May-28 19:28N 29°08' W 094°35'0 0.0
2018-May-28 17:37N 29°08' W 094°35'0 0.0
2018-May-28 17:13N 29°08' W 094°35'0 0.0
2018-May-28 16:58N 29°08' W 094°35'0 0.0
2018-May-28 16:25N 29°08' W 094°35'0 0.0
2018-May-28 12:28N 29°08' W 094°35'0 0.0
2018-May-28 11:55N 29°08' W 094°35'0 0.1
2018-May-28 11:28N 29°08' W 094°35'0 0.1
2018-May-28 10:49N 29°08' W 094°35'0 0.1
2018-May-28 10:28N 29°08' W 094°35'0 0.1
2018-May-28 09:55N 29°08' W 094°35'0 0.0
2018-May-28 09:28N 29°08' W 094°35'0 0.0
2018-May-28 08:58N 29°08' W 094°35'0 0.0
2018-May-28 08:16N 29°08' W 094°35'0 0.1
2018-May-28 07:58N 29°08' W 094°35'0 0.0
2018-May-28 07:25N 29°08' W 094°35'0 0.0
2018-May-28 06:58N 29°08' W 094°35'0 0.0
2018-May-28 06:28N 29°08' W 094°35'0 0.0
2018-May-28 05:07N 29°08' W 094°35'0 0.0
2018-May-28 04:46N 29°08' W 094°35'0 0.0
2018-May-28 04:19N 29°08' W 094°35'0 0.0
2018-May-28 03:58N 29°08' W 094°35'0 0.0
2018-May-28 00:16N 29°08' W 094°35'0 0.0
2018-May-27 23:34N 29°08' W 094°35'0 0.0
2018-May-27 23:22N 29°08' W 094°35'0 0.0
2018-May-27 21:01N 29°08' W 094°35'0 0.1
2018-May-27 20:55N 29°08' W 094°35'0 0.2
2018-May-27 20:28N 29°08' W 094°35'0 0.1
2018-May-27 19:58N 29°08' W 094°35'0 0.0
2018-May-27 19:25N 29°08' W 094°35'0 0.0
2018-May-27 18:55N 29°08' W 094°35'0 0.0
2018-May-27 18:28N 29°08' W 094°35'0 0.0
2018-May-27 17:43N 29°08' W 094°35'0 0.0
2018-May-27 17:28N 29°08' W 094°35'0 0.0
2018-May-27 16:58N 29°08' W 094°35'0 0.0
2018-May-27 16:25N 29°08' W 094°35'0 0.0
2018-May-27 15:28N 29°08' W 094°35'0 0.0
2018-May-27 14:58N 29°08' W 094°35'0 0.0
2018-May-27 14:28N 29°08' W 094°35'0 0.0
2018-May-27 13:58N 29°08' W 094°35'0 0.0
2018-May-27 13:28N 29°08' W 094°35'0 0.0
2018-May-27 12:58N 29°08' W 094°35'0 0.0
2018-May-27 12:25N 29°08' W 094°35'0 0.0
2018-May-27 11:58N 29°08' W 094°35'0 0.0
2018-May-27 10:40N 29°08' W 094°35'0 0.1
2018-May-27 10:28N 29°08' W 094°35'0 0.0
2018-May-27 09:55N 29°08' W 094°35'0 0.0
2018-May-27 09:28N 29°08' W 094°35'0 0.0
2018-May-27 08:52N 29°08' W 094°35'0 0.0
2018-May-27 08:28N 29°08' W 094°35'0 0.0
2018-May-27 07:52N 29°08' W 094°35'0 0.0
2018-May-27 07:28N 29°08' W 094°35'0 0.0
2018-May-27 06:58N 29°08' W 094°35'0 0.0
2018-May-27 06:28N 29°08' W 094°35'0 0.0
2018-May-27 05:58N 29°08' W 094°35'0 0.0
2018-May-27 05:28N 29°08' W 094°35'0 0.0
2018-May-27 04:52N 29°08' W 094°35'0 0.0
2018-May-27 04:28N 29°08' W 094°35'0 0.0
2018-May-27 03:49N 29°08' W 094°35'0 0.0
2018-May-27 03:28N 29°08' W 094°35'0 0.0
2018-May-27 02:16N 29°08' W 094°35'0 0.0
2018-May-27 01:40N 29°08' W 094°35'0 0.0
2018-May-27 01:19N 29°08' W 094°35'0 0.0
2018-May-27 00:55N 29°08' W 094°35'0 0.0
2018-May-26 23:52N 29°08' W 094°35'0 0.0
2018-May-26 23:16N 29°08' W 094°35'0 0.0
2018-May-26 22:28N 29°08' W 094°35'0 0.0
2018-May-26 21:52N 29°08' W 094°35'0 0.0
2018-May-26 21:28N 29°08' W 094°35'0 0.0
2018-May-26 20:58N 29°08' W 094°35'0 0.0
2018-May-26 20:28N 29°08' W 094°35'0 0.0
2018-May-26 19:55N 29°08' W 094°35'0 0.0
2018-May-26 19:28N 29°08' W 094°35'0 0.0
2018-May-26 15:49N 29°08' W 094°35'0 0.0
2018-May-26 15:28N 29°08' W 094°35'0 0.0
2018-May-26 14:58N 29°08' W 094°35'0 0.0
2018-May-26 14:28N 29°08' W 094°35'0 0.0
2018-May-26 14:01N 29°08' W 094°35'0 0.0
2018-May-26 12:52N 29°08' W 094°35'0 0.1
2018-May-26 12:28N 29°08' W 094°35'0 0.0
2018-May-26 11:58N 29°08' W 094°35'0 0.0
2018-May-26 11:28N 29°08' W 094°35'0 0.0
2018-May-26 10:55N 29°08' W 094°35'0 0.0
2018-May-26 10:31N 29°08' W 094°35'0 0.0
2018-May-26 09:58N 29°08' W 094°35'0 0.0
2018-May-26 09:28N 29°08' W 094°35'0 0.0
2018-May-26 08:55N 29°08' W 094°35'0 0.0
2018-May-26 08:28N 29°08' W 094°35'  

Dump ship's entire track history